Time;durP1;ratioP1;P1;durP2;ratioP2;P2;SDS_P1;SDS_P2;PMS_P1;PMS_P2;Temp;Humidity;BMP_temperature;BMP_pressure;BME280_temperature;BME280_humidity;BME280_pressure;Samples;Min_cycle;Max_cycle;Signal;HPM_P1;HPM_P2
2023/03/26 00:01:22;;;;;;;9.45;3.40;;;;;;;10.02;64.77;100145.91;4140247;28;20076;-66
2023/03/26 00:03:26;;;;;;;6.28;1.58;;;;;;;10.10;65.44;100149.47;4143493;28;20038;-65
2023/03/26 00:05:30;;;;;;;14.17;3.10;;;;;;;10.07;65.72;100141.59;4150628;28;20041;-66
2023/03/26 00:07:33;;;;;;;11.63;4.55;;;;;;;10.03;66.05;100147.66;4146048;28;20037;-66
2023/03/26 00:09:38;;;;;;;13.80;3.78;;;;;;;9.91;66.35;100143.16;4144101;28;20048;-66
2023/03/26 00:11:41;;;;;;;19.02;8.27;;;;;;;9.90;66.29;100140.53;4148311;28;20038;-66
2023/03/26 00:13:45;;;;;;;10.93;3.40;;;;;;;9.84;66.85;100130.97;4114452;28;20438;-65
2023/03/26 00:15:48;;;;;;;9.50;2.92;;;;;;;9.76;66.36;100135.19;4143878;28;21995;-65
2023/03/26 00:17:53;;;;;;;11.30;4.90;;;;;;;9.61;66.75;100135.88;4119949;28;20046;-65
2023/03/26 00:19:58;;;;;;;15.95;6.85;;;;;;;9.50;67.06;100138.31;4149826;28;20122;-65
2023/03/26 00:22:02;;;;;;;7.72;2.40;;;;;;;9.38;67.32;100123.47;4144424;28;20033;-65
2023/03/26 00:24:09;;;;;;;7.18;2.47;;;;;;;9.34;67.52;100118.22;4139340;28;20042;-65
2023/03/26 00:26:15;;;;;;;6.15;1.85;;;;;;;9.28;68.18;100124.19;4133755;28;20046;-65
2023/03/26 00:28:21;;;;;;;10.65;3.00;;;;;;;9.26;67.88;100125.91;4130227;28;20034;-65
2023/03/26 00:30:24;;;;;;;19.23;6.60;;;;;;;9.28;68.39;100128.50;4130996;28;20052;-65
2023/03/26 00:32:28;;;;;;;14.13;6.00;;;;;;;9.41;67.88;100123.50;4131834;28;20066;-65
2023/03/26 00:34:33;;;;;;;16.08;6.78;;;;;;;9.44;67.68;100123.53;4125825;28;20058;-65
2023/03/26 00:36:36;;;;;;;19.42;4.97;;;;;;;9.52;67.23;100123.66;4132023;28;20130;-64
2023/03/26 00:38:39;;;;;;;11.88;2.95;;;;;;;9.54;67.42;100127.13;4162352;28;20096;-65
2023/03/26 00:40:44;;;;;;;13.32;3.65;;;;;;;9.49;67.39;100122.72;4129762;28;20093;-64
2023/03/26 00:42:48;;;;;;;7.03;3.45;;;;;;;9.52;67.39;100125.38;4142132;28;20038;-65
2023/03/26 00:44:53;;;;;;;8.55;1.67;;;;;;;9.51;67.33;100121.06;4155737;28;20518;-65
2023/03/26 00:46:56;;;;;;;6.22;1.92;;;;;;;9.54;66.91;100128.88;4120241;28;20042;-64
2023/03/26 00:49:00;;;;;;;5.13;1.65;;;;;;;9.56;66.89;100124.56;4133673;28;20076;-64
2023/03/26 00:51:04;;;;;;;6.18;1.65;;;;;;;9.55;66.56;100115.91;4147147;28;20040;-65
2023/03/26 00:53:10;;;;;;;7.03;1.92;;;;;;;9.63;66.76;100118.59;4143408;28;20042;-65
2023/03/26 00:55:14;;;;;;;7.28;1.60;;;;;;;9.64;66.67;100120.34;4159038;28;20568;-65
2023/03/26 00:57:19;;;;;;;9.40;2.40;;;;;;;9.71;66.67;100114.38;4155511;28;20038;-65
2023/03/26 00:59:39;;;;;;;7.13;2.50;;;;;;;9.67;66.14;100117.78;4152228;28;20288;-65
2023/03/26 01:01:43;;;;;;;4.82;1.48;;;;;;;9.62;65.91;100111.66;4143587;28;20077;-66
2023/03/26 01:03:46;;;;;;;6.10;1.75;;;;;;;9.60;66.16;100108.19;4122657;28;20493;-65
2023/03/26 01:06:12;;;;;;;4.18;1.55;;;;;;;9.54;66.44;100101.19;4139919;28;20034;-66
2023/03/26 01:08:24;;;;;;;8.40;1.95;;;;;;;9.54;66.16;100093.41;4132866;28;20398;-66
2023/03/26 01:10:28;;;;;;;13.70;2.10;;;;;;;9.58;66.25;100097.78;4166989;28;20476;-65
2023/03/26 01:12:31;;;;;;;7.33;1.83;;;;;;;9.64;66.43;100089.19;4157833;28;20037;-65
2023/03/26 01:14:34;;;;;;;8.10;1.70;;;;;;;9.47;66.07;100091.56;4165603;28;20303;-65
2023/03/26 01:16:43;;;;;;;9.52;1.95;;;;;;;9.48;66.36;100089.88;4145256;28;20181;-65
2023/03/26 01:18:48;;;;;;;4.65;1.70;;;;;;;9.35;66.57;100087.09;4134408;28;20041;-65
2023/03/26 01:20:57;;;;;;;5.85;1.58;;;;;;;9.16;66.87;100072.16;4162265;28;20141;-65
2023/03/26 01:23:05;;;;;;;7.65;2.00;;;;;;;9.10;67.22;100072.94;4150199;28;20045;-66
2023/03/26 01:25:09;;;;;;;7.63;1.80;;;;;;;9.20;67.13;100077.41;4130053;28;20082;-65
2023/03/26 01:27:23;;;;;;;6.43;1.20;;;;;;;9.24;66.90;100071.41;4122439;28;20097;-65
2023/03/26 01:29:33;;;;;;;6.55;1.95;;;;;;;9.20;67.09;100076.50;4118680;28;20035;-65
2023/03/26 01:31:45;;;;;;;5.75;2.00;;;;;;;9.29;66.58;100067.97;4138722;28;20062;-65
2023/03/26 01:33:52;;;;;;;7.75;2.30;;;;;;;9.34;66.72;100054.22;4130721;28;20089;-65
2023/03/26 01:36:01;;;;;;;7.82;1.80;;;;;;;9.31;66.34;100045.53;4136890;28;20088;-65
2023/03/26 01:38:17;;;;;;;7.97;2.17;;;;;;;9.38;66.62;100047.38;4155106;28;20686;-66
2023/03/26 01:40:26;;;;;;;9.52;2.15;;;;;;;9.52;66.23;100042.31;4146033;28;20708;-65
2023/03/26 01:42:36;;;;;;;7.07;1.75;;;;;;;9.44;65.98;100040.50;4144038;28;20480;-65
2023/03/26 01:44:45;;;;;;;10.23;2.22;;;;;;;9.36;66.48;100039.56;4144304;28;20035;-66
2023/03/26 01:46:49;;;;;;;8.30;1.92;;;;;;;9.36;66.24;100028.31;4122340;28;20512;-65
2023/03/26 01:48:52;;;;;;;9.10;1.95;;;;;;;9.44;66.03;100030.13;4170380;28;20502;-65
2023/03/26 01:50:57;;;;;;;6.25;1.50;;;;;;;9.52;66.45;100031.94;4152233;28;20120;-66
2023/03/26 01:53:00;;;;;;;;;;;;;;;9.54;66.04;100027.66;4134103;28;20034;-65
2023/03/26 01:55:05;;;;;;;6.40;1.95;;;;;;;9.61;66.21;100024.28;4148806;28;19922;-65
2023/03/26 01:57:17;;;;;;;3.90;1.70;;;;;;;9.55;65.79;100017.31;4140948;28;20049;-65
2023/03/26 01:59:45;;;;;;;10.63;2.15;;;;;;;9.57;65.70;100002.59;4168617;28;20049;-65
2023/03/26 02:01:57;;;;;;;6.70;1.90;;;;;;;9.54;65.52;99997.38;4155937;28;20045;-65
2023/03/26 02:04:11;;;;;;;6.55;1.63;;;;;;;9.57;65.57;100002.59;4134056;28;20093;-65
2023/03/26 02:06:20;;;;;;;4.88;1.70;;;;;;;9.65;65.60;100004.41;4144221;28;20057;-65
2023/03/26 02:08:34;;;;;;;8.57;1.70;;;;;;;9.61;65.68;100000.94;4150584;28;20108;-65
2023/03/26 02:10:42;;;;;;;4.80;1.70;;;;;;;9.66;65.24;99995.78;4114770;28;20595;-65
2023/03/26 02:12:47;;;;;;;5.97;1.65;;;;;;;9.70;65.21;99993.22;4150785;28;20555;-65
2023/03/26 02:14:51;;;;;;;8.63;2.10;;;;;;;9.63;64.86;99978.44;4156449;28;20042;-65
2023/03/26 02:16:56;;;;;;;12.27;2.17;;;;;;;9.69;65.39;99975.91;4132516;28;20065;-65
2023/03/26 02:18:59;;;;;;;7.03;1.65;;;;;;;9.77;64.78;99974.25;4140424;28;20404;-65
2023/03/26 02:21:04;;;;;;;10.18;2.47;;;;;;;9.78;64.62;99970.81;4135261;28;20554;-65
2023/03/26 02:23:07;;;;;;;4.32;1.70;;;;;;;9.78;64.74;99965.63;4117661;28;20457;-65
2023/03/26 02:25:12;;;;;;;;;;;;;;;9.78;64.61;99963.03;4148112;28;20033;-65
2023/03/26 02:27:17;;;;;;;5.10;1.67;;;;;;;9.82;64.38;99957.88;4163682;28;19928;-65
2023/03/26 02:29:21;;;;;;;8.23;2.20;;;;;;;9.85;64.24;99957.91;4110508;28;20049;-65
2023/03/26 02:31:26;;;;;;;8.27;1.90;;;;;;;9.83;64.27;99963.06;4123539;28;20181;-65
2023/03/26 02:33:30;;;;;;;5.70;1.35;;;;;;;9.82;64.35;99950.09;4138978;28;20034;-65
2023/03/26 02:35:33;;;;;;;11.80;2.72;;;;;;;9.82;64.48;99944.88;4154647;28;20049;-65
2023/03/26 02:37:37;;;;;;;7.15;2.00;;;;;;;9.85;64.29;99950.09;4134733;28;20046;-65
2023/03/26 02:39:48;;;;;;;7.20;2.22;;;;;;;9.76;64.56;99936.19;4174910;28;20071;-65
2023/03/26 02:42:00;;;;;;;9.02;1.92;;;;;;;9.73;64.58;99938.75;4132774;28;20384;-65
2023/03/26 02:44:05;;;;;;;12.60;2.15;;;;;;;9.68;64.58;99943.03;4164672;23;20034;-70
2023/03/26 02:46:27;;;;;;;8.25;1.98;;;;;;;9.54;64.83;99939.44;4158971;28;20037;-70
2023/03/26 02:48:43;;;;;;;8.85;2.03;;;;;;;9.52;64.71;99928.16;4157623;28;20570;-70
2023/03/26 02:50:53;;;;;;;10.68;2.22;;;;;;;9.56;64.65;99929.94;4161325;28;20124;-70
2023/03/26 02:53:15;;;;;;;11.02;2.47;;;;;;;9.36;64.63;99917.66;4160711;28;20038;-70
2023/03/26 02:55:22;;;;;;;8.88;2.13;;;;;;;9.33;64.92;99907.25;4155846;28;20041;-70
2023/03/26 02:57:28;;;;;;;9.68;2.45;;;;;;;9.39;65.30;99909.03;4143722;28;20417;-70
2023/03/26 02:59:30;;;;;;;16.35;2.95;;;;;;;9.46;65.06;99904.75;4151165;28;20452;-71
2023/03/26 03:01:54;;;;;;;10.07;2.15;;;;;;;9.51;65.23;99897.91;4156679;28;20073;-71
2023/03/26 03:04:00;;;;;;;10.43;2.55;;;;;;;9.60;64.83;99897.97;4162647;28;20095;-71
2023/03/26 03:06:10;;;;;;;17.58;3.25;;;;;;;9.63;65.30;99887.63;4158653;28;20049;-71
2023/03/26 03:08:18;;;;;;;13.60;2.88;;;;;;;9.73;64.98;99886.84;4158580;28;20497;-71
2023/03/26 03:10:36;;;;;;;9.05;2.50;;;;;;;9.81;65.32;99889.47;4160925;28;20493;-71
2023/03/26 03:12:44;;;;;;;17.38;3.35;;;;;;;9.91;64.90;99885.25;4157657;28;20041;-71
2023/03/26 03:14:47;;;;;;;8.00;1.83;;;;;;;9.93;65.61;99880.94;4161339;28;20045;-71
2023/03/26 03:16:50;;;;;;;7.60;1.85;;;;;;;9.95;64.85;99882.66;4160459;28;20037;-71
2023/03/26 03:18:55;;;;;;;9.60;2.28;;;;;;;10.00;65.43;99872.31;4161360;28;20200;-70
2023/03/26 03:21:06;;;;;;;12.30;2.35;;;;;;;10.01;65.15;99868.88;4159124;28;20425;-70
2023/03/26 03:23:09;;;;;;;6.55;2.08;;;;;;;9.99;64.73;99878.38;4150884;28;20033;-70
2023/03/26 03:25:16;;;;;;;9.43;1.95;;;;;;;9.99;65.23;99875.78;4160045;28;20041;-70
2023/03/26 03:27:22;;;;;;;10.98;2.63;;;;;;;10.04;64.85;99868.03;4157534;28;20037;-71
2023/03/26 03:29:32;;;;;;;13.43;1.98;;;;;;;10.02;64.78;99868.03;4173815;28;20075;-70
2023/03/26 03:31:55;;;;;;;7.72;1.88;;;;;;;10.05;64.65;99865.44;4160143;28;20057;-70
2023/03/26 03:34:20;;;;;;;13.13;2.65;;;;;;;10.00;64.53;99858.47;4162483;28;20049;-70
2023/03/26 03:36:29;;;;;;;8.65;1.88;;;;;;;9.99;64.82;99854.13;4142832;28;20469;-70
2023/03/26 03:38:39;;;;;;;8.07;2.25;;;;;;;9.97;65.30;99848.94;4160477;28;20034;-70
2023/03/26 03:40:43;;;;;;;14.40;2.00;;;;;;;9.98;65.25;99848.06;4158898;28;20092;-70
2023/03/26 03:42:46;;;;;;;6.28;2.22;;;;;;;9.96;65.00;99840.28;4161812;28;20467;-70
2023/03/26 03:44:56;;;;;;;6.78;1.77;;;;;;;10.09;64.83;99836.03;4152390;28;20119;-70
2023/03/26 03:47:31;;;;;;;12.57;2.70;;;;;;;9.95;64.83;99832.47;4155638;28;20041;-69
2023/03/26 03:49:36;;;;;;;6.72;1.92;;;;;;;9.92;65.04;99837.66;4162832;28;20095;-69
2023/03/26 03:51:39;;;;;;;8.00;1.83;;;;;;;9.91;65.22;99828.13;4157886;28;20128;-70
2023/03/26 03:53:55;;;;;;;8.75;2.17;;;;;;;9.91;64.90;99833.31;4155681;28;20048;-70
2023/03/26 03:56:27;;;;;;;9.13;2.00;;;;;;;9.86;65.46;99816.84;4144976;28;20054;-70
2023/03/26 03:58:57;;;;;;;8.00;1.98;;;;;;;9.83;65.06;99822.00;4160853;28;20493;-70
2023/03/26 04:01:05;;;;;;;7.35;2.10;;;;;;;9.81;65.42;99819.38;4136873;28;20073;-70
2023/03/26 04:03:28;;;;;;;10.02;3.00;;;;;;;9.83;64.98;99816.81;4158471;28;20049;-70
2023/03/26 04:05:37;;;;;;;6.88;2.05;;;;;;;9.86;65.29;99807.31;4160496;28;20136;-70
2023/03/26 04:07:40;;;;;;;8.60;1.75;;;;;;;9.84;65.18;99797.78;4159950;28;20041;-70
2023/03/26 04:09:43;;;;;;;8.88;2.60;;;;;;;9.87;65.17;99792.59;4163188;28;20033;-70
2023/03/26 04:11:51;;;;;;;8.90;2.10;;;;;;;9.83;65.63;99791.72;4159251;28;20041;-70
2023/03/26 04:14:14;;;;;;;7.35;1.73;;;;;;;9.77;65.67;99784.78;4155052;28;20132;-70
2023/03/26 04:16:42;;;;;;;14.38;3.38;;;;;;;9.76;65.99;99785.63;4155611;28;20061;-70
2023/03/26 04:18:45;;;;;;;9.52;2.25;;;;;;;9.82;65.69;99766.63;4158271;28;20099;-70
2023/03/26 04:20:51;;;;;;;8.85;2.40;;;;;;;9.79;66.34;99764.88;4160838;28;20516;-69
2023/03/26 04:22:59;;;;;;;8.15;1.90;;;;;;;9.78;65.77;99762.25;4145979;28;20104;-70
2023/03/26 04:25:04;;;;;;;10.00;2.20;;;;;;;9.82;65.40;99768.38;4161294;28;20397;-70
2023/03/26 04:27:15;;;;;;;7.55;1.67;;;;;;;9.78;65.76;99752.78;4157460;28;20042;-70
2023/03/26 04:29:22;;;;;;;9.05;1.80;;;;;;;9.74;66.00;99750.16;4158883;28;20099;-71
2023/03/26 04:31:29;;;;;;;7.88;2.22;;;;;;;9.69;66.02;99744.91;4159044;28;20523;-70
2023/03/26 04:33:34;;;;;;;9.13;2.10;;;;;;;9.66;66.30;99738.84;4159567;28;20091;-70
2023/03/26 04:35:40;;;;;;;10.15;2.42;;;;;;;9.67;66.72;99744.03;4159435;28;20036;-70
2023/03/26 04:37:46;;;;;;;8.05;2.13;;;;;;;9.69;66.44;99746.66;4161862;28;20045;-69
2023/03/26 04:39:54;;;;;;;7.88;2.00;;;;;;;9.67;66.77;99744.03;4156310;28;20048;-70
2023/03/26 04:41:57;;;;;;;8.70;2.60;;;;;;;9.69;66.15;99738.84;4159437;28;20049;-70
2023/03/26 04:44:07;;;;;;;3.70;1.60;;;;;;;9.69;66.73;99736.25;4158568;28;20047;-70
2023/03/26 04:46:36;;;;;;;9.13;1.92;;;;;;;9.66;66.48;99731.91;4160699;28;20149;-70
2023/03/26 04:48:49;;;;;;;9.93;2.47;;;;;;;9.68;66.30;99722.44;4156753;28;20038;-70
2023/03/26 04:50:52;;;;;;;6.88;2.22;;;;;;;9.67;66.54;99719.84;4159636;28;20045;-70
2023/03/26 04:52:58;;;;;;;8.70;1.90;;;;;;;9.66;65.99;99711.16;4158022;28;20048;-70
2023/03/26 04:55:24;;;;;;;7.10;1.92;;;;;;;9.62;66.46;99706.81;4160728;28;20041;-70
2023/03/26 04:57:44;;;;;;;6.78;2.05;;;;;;;9.67;66.32;99704.25;4169566;28;20083;-70
2023/03/26 05:00:13;;;;;;;7.20;2.35;;;;;;;9.60;66.57;99708.53;4160630;28;20099;-70
2023/03/26 05:02:17;;;;;;;9.18;2.03;;;;;;;9.56;67.04;99705.06;4160225;28;20136;-70
2023/03/26 05:04:25;;;;;;;5.85;1.80;;;;;;;9.58;67.06;99703.34;4159589;28;20132;-70
2023/03/26 05:06:29;;;;;;;9.05;2.42;;;;;;;9.57;67.66;99704.19;4160191;28;20060;-70
2023/03/26 05:08:33;;;;;;;8.13;2.30;;;;;;;9.56;67.74;99693.78;4160080;28;20468;-70
2023/03/26 05:10:36;;;;;;;9.35;2.63;;;;;;;9.58;67.38;99686.91;4156631;28;20064;-70
2023/03/26 05:12:45;;;;;;;8.05;2.42;;;;;;;9.56;67.73;99675.63;4155904;28;20068;-71
2023/03/26 05:14:52;;;;;;;8.15;2.20;;;;;;;9.58;68.04;99676.53;4159720;28;20037;-70
2023/03/26 05:17:09;;;;;;;7.28;2.28;;;;;;;9.65;67.33;99673.09;4176583;28;20048;-71
2023/03/26 05:19:14;;;;;;;11.20;2.97;;;;;;;9.71;67.42;99670.53;4160244;28;20641;-70
2023/03/26 05:21:16;;;;;;;5.85;2.80;;;;;;;9.67;67.37;99666.19;4158952;28;20389;-70
2023/03/26 05:23:19;;;;;;;8.43;2.13;;;;;;;9.65;67.86;99669.63;4151030;28;20129;-70
2023/03/26 05:25:30;;;;;;;10.75;2.42;;;;;;;9.66;67.55;99664.44;4155320;28;20042;-70
2023/03/26 05:27:35;;;;;;;10.50;2.45;;;;;;;9.62;67.23;99665.28;4169241;28;20051;-70
2023/03/26 05:29:37;;;;;;;13.90;4.07;;;;;;;9.62;67.61;99673.06;4160344;28;20053;-70
2023/03/26 05:31:40;;;;;;;8.40;2.22;;;;;;;9.68;67.38;99667.94;4159908;28;20049;-70
2023/03/26 05:33:43;;;;;;;8.80;1.95;;;;;;;9.59;68.04;99662.66;4158692;28;20044;-68
2023/03/26 05:35:49;;;;;;;4.93;1.55;;;;;;;9.57;68.19;99649.69;4159769;28;20061;-70
2023/03/26 05:37:52;;;;;;;7.53;2.10;;;;;;;9.65;68.17;99646.25;4156929;28;20365;-71
2023/03/26 05:39:58;;;;;;;8.75;2.17;;;;;;;9.56;68.32;99645.38;4140965;28;20081;-70
2023/03/26 05:42:32;;;;;;;7.85;2.58;;;;;;;9.58;68.58;99645.38;4153143;28;20469;-70
2023/03/26 05:44:57;;;;;;;6.10;1.98;;;;;;;9.63;68.52;99637.63;4143053;28;20057;-70
2023/03/26 05:47:03;;;;;;;8.25;2.40;;;;;;;9.66;68.55;99632.44;4158928;28;20038;-70
2023/03/26 05:49:06;;;;;;;6.80;1.90;;;;;;;9.58;68.71;99624.63;4172050;28;20064;-70
2023/03/26 05:51:11;;;;;;;17.20;2.70;;;;;;;9.56;69.26;99626.34;4158798;28;20037;-71
2023/03/26 05:53:18;;;;;;;7.85;2.13;;;;;;;9.59;68.94;99618.56;4159208;28;20037;-71
2023/03/26 05:55:39;;;;;;;7.93;2.75;;;;;;;9.54;68.94;99620.28;4153926;28;20117;-71
2023/03/26 05:58:07;;;;;;;5.85;2.33;;;;;;;9.50;69.18;99605.56;4145149;28;20050;-71
2023/03/26 06:00:28;;;;;;;7.90;2.10;;;;;;;9.51;69.48;99612.47;4158046;28;20052;-71
2023/03/26 06:02:31;;;;;;;8.00;2.22;;;;;;;9.54;69.41;99599.53;4154933;28;20045;-71
2023/03/26 06:05:08;;;;;;;11.00;2.33;;;;;;;9.54;69.93;99602.13;4145701;28;20061;-71
2023/03/26 06:07:37;;;;;;;9.02;2.20;;;;;;;9.52;70.54;99604.72;4156476;28;20049;-71
2023/03/26 06:09:52;;;;;;;;;;;;;;;9.44;70.96;99599.47;4157419;28;20560;-71
2023/03/26 06:11:55;;;;;;;6.35;1.70;;;;;;;9.38;71.03;99596.84;4161387;28;19921;-71
2023/03/26 06:14:00;;;;;;;10.57;3.17;;;;;;;9.40;71.21;99589.94;4146569;28;20038;-71
2023/03/26 06:16:04;;;;;;;7.30;1.88;;;;;;;9.43;71.19;99579.59;4171218;28;20033;-72
2023/03/26 06:18:09;;;;;;;7.03;2.22;;;;;;;9.35;71.71;99576.06;4162248;28;20064;-71
2023/03/26 06:20:24;;;;;;;5.05;1.90;;;;;;;9.33;71.73;99588.19;4162986;28;20046;-71
2023/03/26 06:22:28;;;;;;;6.70;2.50;;;;;;;9.38;72.07;99565.72;4162564;28;20431;-71
2023/03/26 06:24:47;;;;;;;9.10;2.80;;;;;;;9.48;71.74;99560.59;4158930;28;20722;-72
2023/03/26 06:27:08;;;;;;;11.65;2.80;;;;;;;9.47;71.40;99561.44;4160253;28;20068;-72
2023/03/26 06:29:47;;;;;;;10.75;2.35;;;;;;;9.47;71.96;99562.28;4160193;28;20041;-71
2023/03/26 06:32:09;;;;;;;7.00;2.50;;;;;;;9.51;72.21;99561.44;4164334;28;20049;-72
2023/03/26 06:34:42;;;;;;;6.70;2.47;;;;;;;9.41;72.62;99554.50;4159251;28;20060;-71
2023/03/26 06:36:47;;;;;;;9.07;2.40;;;;;;;9.43;72.65;99548.47;4159803;28;20051;-73
2023/03/26 06:38:50;;;;;;;7.85;2.25;;;;;;;9.39;72.61;99541.53;4147565;28;20215;-72
2023/03/26 06:40:53;;;;;;;7.13;2.03;;;;;;;9.47;72.56;99535.50;4162028;28;20038;-72
2023/03/26 06:42:59;;;;;;;8.52;2.35;;;;;;;9.47;72.92;99535.50;4159237;28;20033;-72
2023/03/26 06:45:33;;;;;;;6.18;1.90;;;;;;;9.46;73.10;99528.56;4169377;28;20041;-73
2023/03/26 06:48:08;;;;;;;8.38;2.13;;;;;;;9.42;73.43;99530.28;4141466;28;20063;-72
2023/03/26 06:50:34;;;;;;;8.18;2.03;;;;;;;9.42;73.48;99530.28;4155062;28;20527;-72
2023/03/26 06:52:56;;;;;;;7.35;2.05;;;;;;;9.42;73.13;99525.97;4161759;28;20146;-73
2023/03/26 06:55:14;;;;;;;8.43;2.30;;;;;;;9.47;73.45;99520.78;4175742;28;20117;-72
2023/03/26 06:57:41;;;;;;;10.70;2.38;;;;;;;9.42;73.95;99523.38;4164030;28;20140;-73
2023/03/26 07:00:12;;;;;;;6.47;1.95;;;;;;;9.47;73.24;99517.34;4174946;28;20075;-73
2023/03/26 07:02:36;;;;;;;5.30;2.30;;;;;;;9.51;73.12;99522.53;4178562;28;20543;-73
2023/03/26 07:04:58;;;;;;;8.25;2.03;;;;;;;9.49;73.23;99523.38;4162714;28;20128;-72
2023/03/26 07:07:20;;;;;;;8.02;2.53;;;;;;;9.59;73.42;99518.25;4172592;28;20064;-72
2023/03/26 07:09:52;;;;;;;13.77;4.05;;;;;;;9.67;73.40;99513.06;4134403;28;20193;-73
2023/03/26 07:12:25;;;;;;;16.42;2.55;;;;;;;9.65;73.38;99507.03;4162574;28;20075;-72
2023/03/26 07:14:51;;;;;;;5.72;1.67;;;;;;;9.64;72.68;99512.19;4153308;28;20548;-73
2023/03/26 07:16:58;;;;;;;8.43;2.20;;;;;;;9.64;72.83;99505.28;4180535;28;20129;-73
2023/03/26 07:19:23;;;;;;;8.05;2.33;;;;;;;9.65;73.05;99496.63;4158742;28;20092;-73
2023/03/26 07:21:27;;;;;;;;;;;;;;;9.58;73.22;99498.34;4162263;28;20074;-73
2023/03/26 07:23:30;;;;;;;14.00;2.95;;;;;;;9.59;73.84;99496.59;4162364;28;19921;-72
2023/03/26 07:25:53;;;;;;;10.30;2.67;;;;;;;9.62;73.39;99496.59;4179404;28;20049;-73
2023/03/26 07:28:10;;;;;;;8.52;2.33;;;;;;;9.64;73.87;99501.78;4160553;28;20041;-73
2023/03/26 07:30:46;;;;;;;13.05;3.15;;;;;;;9.56;73.63;99496.59;4170197;28;20397;-73
2023/03/26 07:33:15;;;;;;;7.75;2.08;;;;;;;9.60;73.61;99494.00;4160909;28;20136;-72
2023/03/26 07:36:06;;;;;;;6.68;1.90;;;;;;;9.56;74.03;99484.50;4167218;28;20041;-72
2023/03/26 07:38:39;;;;;;;8.75;2.35;;;;;;;9.54;74.08;99473.25;4144324;28;20064;-72
2023/03/26 07:41:08;;;;;;;9.52;2.22;;;;;;;9.54;73.61;99475.84;4162739;28;20107;-72
2023/03/26 07:43:56;;;;;;;8.15;2.15;;;;;;;9.57;74.42;99474.97;4177622;28;20122;-72
2023/03/26 07:46:28;;;;;;;9.40;2.35;;;;;;;9.60;74.20;99473.25;4161141;28;20045;-72
2023/03/26 07:48:58;;;;;;;9.07;2.10;;;;;;;9.64;73.47;99470.66;4160863;28;20042;-72
2023/03/26 07:51:18;;;;;;;10.77;2.42;;;;;;;9.61;73.59;99468.94;4162035;28;20038;-72
2023/03/26 07:53:29;;;;;;;8.93;2.28;;;;;;;9.62;73.69;99475.84;4174705;28;20040;-73
2023/03/26 07:55:52;;;;;;;8.80;2.55;;;;;;;9.66;74.21;99471.53;4156737;28;20198;-74
2023/03/26 07:58:32;;;;;;;9.82;2.75;;;;;;;9.60;74.50;99478.44;4161349;28;20034;-75
2023/03/26 08:01:08;;;;;;;7.45;2.13;;;;;;;9.62;74.50;99473.25;4172955;28;20440;-75
2023/03/26 08:03:25;;;;;;;10.57;2.95;;;;;;;9.52;73.79;99474.09;4155121;28;20055;-76
2023/03/26 08:05:32;;;;;;;7.28;2.00;;;;;;;9.50;74.83;99470.63;4152786;28;20033;-76
2023/03/26 08:08:06;;;;;;;9.40;2.35;;;;;;;9.43;74.58;99469.75;4157500;28;20061;-74
2023/03/26 08:10:21;;;;;;;7.13;2.63;;;;;;;9.25;74.97;99483.53;4152041;28;20575;-75
2023/03/26 08:12:46;;;;;;;11.68;2.15;;;;;;;9.01;75.52;99486.88;4159435;28;20480;-74
2023/03/26 08:14:57;;;;;;;10.05;2.40;;;;;;;9.10;75.26;99476.56;4160304;28;20037;-75
2023/03/26 08:17:05;;;;;;;8.98;2.55;;;;;;;9.14;75.87;99480.91;4171851;28;20061;-73
2023/03/26 08:19:27;;;;;;;7.72;2.40;;;;;;;9.19;76.07;99480.91;4167401;28;20037;-75
2023/03/26 08:21:36;;;;;;;10.85;2.60;;;;;;;9.18;76.47;99490.41;4175797;28;20106;-74
2023/03/26 08:24:00;;;;;;;9.55;2.13;;;;;;;9.14;75.37;99478.31;4175656;28;20040;-76
2023/03/26 08:26:08;;;;;;;14.52;2.60;;;;;;;9.03;76.50;99475.66;4175882;28;20049;-75
2023/03/26 08:28:23;;;;;;;7.43;2.33;;;;;;;9.11;76.30;99465.31;4172908;28;20136;-75
2023/03/26 08:30:27;;;;;;;4.93;1.73;;;;;;;9.14;76.60;99456.69;4166732;28;20064;-75
2023/03/26 08:32:30;;;;;;;8.55;2.53;;;;;;;9.20;76.84;99461.88;4172042;28;20044;-75
2023/03/26 08:34:33;;;;;;;11.85;2.97;;;;;;;9.26;76.45;99467.13;4178260;28;20040;-74
2023/03/26 08:36:36;;;;;;;9.93;2.40;;;;;;;9.31;76.58;99465.38;4175526;28;20048;-74
2023/03/26 08:38:38;;;;;;;11.20;2.75;;;;;;;9.32;76.80;99459.34;4148386;28;20048;-74
2023/03/26 08:41:15;;;;;;;10.75;3.10;;;;;;;9.40;76.25;99438.63;4174669;28;20052;-74
2023/03/26 08:43:47;;;;;;;11.27;2.50;;;;;;;9.40;76.36;99439.50;4172802;28;20397;-74
2023/03/26 08:46:22;;;;;;;9.82;3.13;;;;;;;9.50;76.51;99449.88;4165331;23;20045;-63
2023/03/26 08:48:59;;;;;;;10.70;3.13;;;;;;;9.58;76.86;99456.81;4137568;28;20091;-63
2023/03/26 08:51:43;;;;;;;10.60;3.20;;;;;;;9.54;76.71;99441.25;4147869;28;20070;-63
2023/03/26 08:54:35;;;;;;;11.75;2.35;;;;;;;9.49;76.45;99443.84;4141413;28;20053;-64
2023/03/26 08:56:52;;;;;;;13.25;2.70;;;;;;;9.52;76.57;99449.03;4145460;28;20052;-64
2023/03/26 08:59:18;;;;;;;9.13;2.70;;;;;;;9.65;76.38;99442.16;4141180;28;20038;-64
2023/03/26 09:02:06;;;;;;;13.20;3.17;;;;;;;9.70;76.39;99431.75;4141773;28;20577;-64
2023/03/26 09:04:41;;;;;;;12.35;2.88;;;;;;;9.65;77.18;99418.78;4142930;28;20564;-64
2023/03/26 09:07:13;;;;;;;17.58;3.85;;;;;;;9.69;77.13;99410.13;4146145;28;20042;-65
2023/03/26 09:09:58;;;;;;;9.07;2.10;;;;;;;9.87;76.60;99411.00;4144369;28;20037;-65
2023/03/26 09:12:51;;;;;;;11.20;3.78;;;;;;;10.11;76.14;99418.78;4154324;28;20045;-70
2023/03/26 09:15:33;;;;;;;12.18;3.00;;;;;;;10.32;75.20;99422.22;4105981;28;20039;-69
2023/03/26 09:18:27;;;;;;;9.95;3.22;;;;;;;10.24;75.06;99404.03;4094798;28;20507;-71
2023/03/26 09:24:18;;;;;;;12.52;2.83;;;;;;;10.50;75.63;99397.09;4202054;27;20409;-71
2023/03/26 09:26:26;;;;;;;9.55;2.55;;;;;;;10.38;74.87;99398.88;4194979;28;20049;-72
2023/03/26 09:29:13;;;;;;;10.90;2.47;;;;;;;10.39;75.25;99387.59;4177061;28;20053;-72
2023/03/26 09:31:47;;;;;;;10.60;2.17;;;;;;;10.41;75.33;99391.06;4194816;28;20136;-72
2023/03/26 09:33:59;;;;;;;6.30;1.60;;;;;;;10.40;76.17;99389.31;4194638;28;20131;-72
2023/03/26 09:36:21;;;;;;;8.38;2.42;;;;;;;10.50;75.21;99387.59;4180149;28;20052;-72
2023/03/26 09:38:44;;;;;;;8.13;2.13;;;;;;;10.34;75.02;99384.16;4178350;28;20037;-71
2023/03/26 09:40:58;;;;;;;5.88;1.77;;;;;;;10.38;75.91;99393.69;4187075;28;20043;-71
2023/03/26 09:43:25;;;;;;;7.18;1.70;;;;;;;10.46;74.99;99391.06;4192771;28;20453;-72
2023/03/26 09:45:53;;;;;;;5.40;1.80;;;;;;;10.38;74.77;99375.50;4144204;28;20053;-71
2023/03/26 09:48:38;;;;;;;7.47;1.85;;;;;;;10.39;75.21;99387.59;4189092;28;20040;-72
2023/03/26 09:50:53;;;;;;;5.68;1.63;;;;;;;10.47;74.73;99387.59;4171651;28;20098;-72
2023/03/26 09:53:08;;;;;;;4.95;1.58;;;;;;;10.64;74.92;99385.81;4186900;28;20119;-72
2023/03/26 09:55:28;;;;;;;10.77;1.83;;;;;;;10.76;74.55;99386.59;4205424;28;20119;-71
2023/03/26 09:57:52;;;;;;;3.95;1.70;;;;;;;10.86;74.18;99377.91;4186766;28;20067;-72
2023/03/26 10:00:22;;;;;;;5.22;2.38;;;;;;;11.07;75.03;99366.53;4201810;28;20049;-72
2023/03/26 10:02:42;;;;;;;9.27;2.10;;;;;;;11.43;72.62;99353.31;4181864;28;20047;-73
2023/03/26 10:05:40;;;;;;;6.90;1.70;;;;;;;11.51;72.64;99341.97;4182992;28;20037;-72
2023/03/26 10:08:06;;;;;;;7.60;1.80;;;;;;;11.94;71.78;99345.09;4138471;28;20048;-72
2023/03/26 10:10:21;;;;;;;6.43;1.98;;;;;;;12.28;71.55;99334.34;4186540;28;20037;-72
2023/03/26 10:12:33;;;;;;;8.20;1.92;;;;;;;12.55;70.42;99328.81;4189903;28;20036;-72
2023/03/26 10:14:44;;;;;;;8.60;2.10;;;;;;;12.83;70.74;99332.81;4189134;28;20461;-72
2023/03/26 10:17:00;;;;;;;5.20;1.83;;;;;;;12.88;69.35;99326.66;4183095;28;20029;-72
2023/03/26 10:19:21;;;;;;;5.30;1.80;;;;;;;12.93;69.31;99319.63;4182773;28;20037;-72
2023/03/26 10:21:34;;;;;;;7.63;1.77;;;;;;;12.89;68.05;99312.75;4186973;28;20583;-72
2023/03/26 10:24:06;;;;;;;9.15;2.58;;;;;;;12.90;66.85;99305.78;4185948;28;20041;-73
2023/03/26 10:26:40;;;;;;;9.15;2.53;;;;;;;12.86;67.50;99315.38;4167812;28;20575;-73
2023/03/26 10:29:19;;;;;;;7.68;2.30;;;;;;;12.88;67.88;99326.66;4188421;28;20410;-72
2023/03/26 10:31:40;;;;;;;8.93;2.13;;;;;;;12.62;68.95;99328.75;4192366;28;20043;-72
2023/03/26 10:33:53;;;;;;;9.30;2.70;;;;;;;12.53;69.12;99330.56;4188974;28;20421;-72
2023/03/26 10:36:12;;;;;;;10.68;3.45;;;;;;;12.34;69.37;99331.69;4182822;28;20071;-73
2023/03/26 10:38:22;;;;;;;10.05;2.50;;;;;;;12.04;70.00;99337.19;4164977;28;20106;-72
2023/03/26 10:40:31;;;;;;;9.88;2.78;;;;;;;11.91;70.04;99342.50;4198159;28;20040;-73